sensor_id;sensor_type;location;lat;lon;timestamp;temperature;humidity
14850;DHT22;7517;48.400;11.770;2022-07-12T00:00:56;21.20;66.20
14850;DHT22;7517;48.400;11.770;2022-07-12T00:03:23;21.30;65.60
14850;DHT22;7517;48.400;11.770;2022-07-12T00:05:50;21.20;65.50
14850;DHT22;7517;48.400;11.770;2022-07-12T00:08:19;21.20;65.50
14850;DHT22;7517;48.400;11.770;2022-07-12T00:10:46;21.20;65.60
14850;DHT22;7517;48.400;11.770;2022-07-12T00:13:13;21.30;65.70
14850;DHT22;7517;48.400;11.770;2022-07-12T00:15:41;21.20;65.60
14850;DHT22;7517;48.400;11.770;2022-07-12T00:18:08;21.20;65.70
14850;DHT22;7517;48.400;11.770;2022-07-12T00:20:37;21.20;65.70
14850;DHT22;7517;48.400;11.770;2022-07-12T00:23:04;21.20;65.80
14850;DHT22;7517;48.400;11.770;2022-07-12T00:25:32;21.20;65.80
14850;DHT22;7517;48.400;11.770;2022-07-12T00:27:59;21.20;66.00
14850;DHT22;7517;48.400;11.770;2022-07-12T00:30:27;21.20;66.00
14850;DHT22;7517;48.400;11.770;2022-07-12T00:32:54;21.20;66.00
14850;DHT22;7517;48.400;11.770;2022-07-12T00:35:21;21.30;66.00
14850;DHT22;7517;48.400;11.770;2022-07-12T00:37:48;21.20;66.10
14850;DHT22;7517;48.400;11.770;2022-07-12T00:40:15;21.20;66.10
14850;DHT22;7517;48.400;11.770;2022-07-12T00:42:44;21.20;66.20
14850;DHT22;7517;48.400;11.770;2022-07-12T00:45:12;21.20;66.40
14850;DHT22;7517;48.400;11.770;2022-07-12T00:47:41;21.10;66.20
14850;DHT22;7517;48.400;11.770;2022-07-12T00:50:13;21.10;66.30
14850;DHT22;7517;48.400;11.770;2022-07-12T00:52:42;21.10;66.40
14850;DHT22;7517;48.400;11.770;2022-07-12T00:55:12;21.10;67.10
14850;DHT22;7517;48.400;11.770;2022-07-12T00:57:41;21.10;66.50
14850;DHT22;7517;48.400;11.770;2022-07-12T01:00:13;21.10;66.70
14850;DHT22;7517;48.400;11.770;2022-07-12T01:02:43;21.10;66.80
14850;DHT22;7517;48.400;11.770;2022-07-12T01:05:11;21.10;66.70
14850;DHT22;7517;48.400;11.770;2022-07-12T01:07:38;21.10;66.70
14850;DHT22;7517;48.400;11.770;2022-07-12T01:10:08;21.00;66.70
14850;DHT22;7517;48.400;11.770;2022-07-12T01:12:35;21.00;66.70
14850;DHT22;7517;48.400;11.770;2022-07-12T01:15:06;21.00;66.70
14850;DHT22;7517;48.400;11.770;2022-07-12T01:17:34;21.00;66.90
14850;DHT22;7517;48.400;11.770;2022-07-12T01:20:04;21.00;66.80
14850;DHT22;7517;48.400;11.770;2022-07-12T01:22:34;21.00;66.90
14850;DHT22;7517;48.400;11.770;2022-07-12T01:25:05;20.90;66.90
14850;DHT22;7517;48.400;11.770;2022-07-12T01:27:33;20.90;67.10
14850;DHT22;7517;48.400;11.770;2022-07-12T01:30:01;20.90;67.20
14850;DHT22;7517;48.400;11.770;2022-07-12T01:32:29;20.90;67.30
14850;DHT22;7517;48.400;11.770;2022-07-12T01:35:00;20.90;67.30
14850;DHT22;7517;48.400;11.770;2022-07-12T01:37:30;20.90;67.30
14850;DHT22;7517;48.400;11.770;2022-07-12T01:40:01;20.90;67.30
14850;DHT22;7517;48.400;11.770;2022-07-12T01:42:31;20.90;67.20
14850;DHT22;7517;48.400;11.770;2022-07-12T01:44:58;20.90;67.30
14850;DHT22;7517;48.400;11.770;2022-07-12T01:47:28;20.80;67.10
14850;DHT22;7517;48.400;11.770;2022-07-12T01:49:56;20.80;67.10
14850;DHT22;7517;48.400;11.770;2022-07-12T01:52:24;20.80;66.90
14850;DHT22;7517;48.400;11.770;2022-07-12T01:54:53;20.70;66.70
14850;DHT22;7517;48.400;11.770;2022-07-12T01:57:21;20.70;66.60
14850;DHT22;7517;48.400;11.770;2022-07-12T01:59:50;20.60;66.40
14850;DHT22;7517;48.400;11.770;2022-07-12T02:02:18;20.60;66.40
14850;DHT22;7517;48.400;11.770;2022-07-12T02:04:45;20.50;66.30
14850;DHT22;7517;48.400;11.770;2022-07-12T02:07:12;20.40;66.30
14850;DHT22;7517;48.400;11.770;2022-07-12T02:09:39;20.40;66.40
14850;DHT22;7517;48.400;11.770;2022-07-12T02:12:07;20.30;66.40
14850;DHT22;7517;48.400;11.770;2022-07-12T02:14:34;20.20;66.40
14850;DHT22;7517;48.400;11.770;2022-07-12T02:17:03;20.20;66.60
14850;DHT22;7517;48.400;11.770;2022-07-12T02:19:30;20.10;66.90
14850;DHT22;7517;48.400;11.770;2022-07-12T02:21:57;20.10;67.70
14850;DHT22;7517;48.400;11.770;2022-07-12T02:24:25;20.00;67.00
14850;DHT22;7517;48.400;11.770;2022-07-12T02:26:52;20.00;66.90
14850;DHT22;7517;48.400;11.770;2022-07-12T02:29:19;19.90;66.70
14850;DHT22;7517;48.400;11.770;2022-07-12T02:31:46;19.90;66.70
14850;DHT22;7517;48.400;11.770;2022-07-12T02:34:15;19.80;66.60
14850;DHT22;7517;48.400;11.770;2022-07-12T02:36:42;19.70;66.50
14850;DHT22;7517;48.400;11.770;2022-07-12T02:39:09;19.70;66.50
14850;DHT22;7517;48.400;11.770;2022-07-12T02:41:36;19.60;66.50
14850;DHT22;7517;48.400;11.770;2022-07-12T02:44:04;19.50;66.60
14850;DHT22;7517;48.400;11.770;2022-07-12T02:46:31;19.50;66.80
14850;DHT22;7517;48.400;11.770;2022-07-12T02:48:59;19.40;66.80
14850;DHT22;7517;48.400;11.770;2022-07-12T02:51:27;19.40;66.90
14850;DHT22;7517;48.400;11.770;2022-07-12T02:53:55;19.30;67.00
14850;DHT22;7517;48.400;11.770;2022-07-12T02:56:22;19.20;66.90
14850;DHT22;7517;48.400;11.770;2022-07-12T02:58:49;19.20;67.10
14850;DHT22;7517;48.400;11.770;2022-07-12T03:01:16;19.10;67.40
14850;DHT22;7517;48.400;11.770;2022-07-12T03:03:43;19.10;67.70
14850;DHT22;7517;48.400;11.770;2022-07-12T03:06:10;19.00;67.80
14850;DHT22;7517;48.400;11.770;2022-07-12T03:08:39;19.00;68.10
14850;DHT22;7517;48.400;11.770;2022-07-12T03:11:06;19.00;68.40
14850;DHT22;7517;48.400;11.770;2022-07-12T03:13:33;19.00;68.50
14850;DHT22;7517;48.400;11.770;2022-07-12T03:16:01;18.90;68.60
14850;DHT22;7517;48.400;11.770;2022-07-12T03:18:28;18.90;68.80
14850;DHT22;7517;48.400;11.770;2022-07-12T03:20:56;18.90;69.10
14850;DHT22;7517;48.400;11.770;2022-07-12T03:23:23;18.90;69.20
14850;DHT22;7517;48.400;11.770;2022-07-12T03:25:52;18.90;69.40
14850;DHT22;7517;48.400;11.770;2022-07-12T03:28:19;18.90;69.60
14850;DHT22;7517;48.400;11.770;2022-07-12T03:30:47;18.90;69.70
14850;DHT22;7517;48.400;11.770;2022-07-12T03:33:14;18.90;69.70
14850;DHT22;7517;48.400;11.770;2022-07-12T03:35:41;18.90;69.70
14850;DHT22;7517;48.400;11.770;2022-07-12T03:38:08;18.90;69.70
14850;DHT22;7517;48.400;11.770;2022-07-12T03:40:35;18.90;69.80
14850;DHT22;7517;48.400;11.770;2022-07-12T03:43:04;18.90;69.90
14850;DHT22;7517;48.400;11.770;2022-07-12T03:45:31;18.90;70.10
14850;DHT22;7517;48.400;11.770;2022-07-12T03:47:58;18.90;70.10
14850;DHT22;7517;48.400;11.770;2022-07-12T03:50:25;18.90;70.10
14850;DHT22;7517;48.400;11.770;2022-07-12T03:52:52;18.90;70.10
14850;DHT22;7517;48.400;11.770;2022-07-12T03:55:19;18.90;70.10
14850;DHT22;7517;48.400;11.770;2022-07-12T03:57:48;18.90;70.10
14850;DHT22;7517;48.400;11.770;2022-07-12T04:00:16;18.80;70.10
14850;DHT22;7517;48.400;11.770;2022-07-12T04:02:43;18.80;70.10
14850;DHT22;7517;48.400;11.770;2022-07-12T04:05:11;18.80;70.10
14850;DHT22;7517;48.400;11.770;2022-07-12T04:07:39;18.80;70.10
14850;DHT22;7517;48.400;11.770;2022-07-12T04:10:07;18.80;70.20
14850;DHT22;7517;48.400;11.770;2022-07-12T04:12:35;18.80;70.20
14850;DHT22;7517;48.400;11.770;2022-07-12T04:15:03;18.80;70.40
14850;DHT22;7517;48.400;11.770;2022-07-12T04:17:33;18.80;70.40
14850;DHT22;7517;48.400;11.770;2022-07-12T04:20:01;18.70;70.50
14850;DHT22;7517;48.400;11.770;2022-07-12T04:22:28;18.80;70.60
14850;DHT22;7517;48.400;11.770;2022-07-12T04:24:55;18.80;70.70
14850;DHT22;7517;48.400;11.770;2022-07-12T04:27:22;18.80;70.80
14850;DHT22;7517;48.400;11.770;2022-07-12T04:29:51;18.80;70.80
14850;DHT22;7517;48.400;11.770;2022-07-12T04:32:19;18.80;70.90
14850;DHT22;7517;48.400;11.770;2022-07-12T04:34:47;18.80;70.90
14850;DHT22;7517;48.400;11.770;2022-07-12T04:37:14;18.80;71.10
14850;DHT22;7517;48.400;11.770;2022-07-12T04:39:41;18.80;71.10
14850;DHT22;7517;48.400;11.770;2022-07-12T04:42:08;18.80;71.10
14850;DHT22;7517;48.400;11.770;2022-07-12T04:44:36;18.80;71.20
14850;DHT22;7517;48.400;11.770;2022-07-12T04:47:03;18.80;71.30
14850;DHT22;7517;48.400;11.770;2022-07-12T04:49:31;18.80;71.30
14850;DHT22;7517;48.400;11.770;2022-07-12T04:52:00;18.80;71.50
14850;DHT22;7517;48.400;11.770;2022-07-12T04:54:27;18.90;71.60
14850;DHT22;7517;48.400;11.770;2022-07-12T04:56:54;18.90;71.60
14850;DHT22;7517;48.400;11.770;2022-07-12T04:59:21;18.90;71.70
14850;DHT22;7517;48.400;11.770;2022-07-12T05:01:49;18.90;71.70
14850;DHT22;7517;48.400;11.770;2022-07-12T05:04:16;19.00;71.70
14850;DHT22;7517;48.400;11.770;2022-07-12T05:06:43;19.00;71.70
14850;DHT22;7517;48.400;11.770;2022-07-12T05:09:11;19.10;71.70
14850;DHT22;7517;48.400;11.770;2022-07-12T05:11:38;19.10;71.70
14850;DHT22;7517;48.400;11.770;2022-07-12T05:14:06;19.20;71.70
14850;DHT22;7517;48.400;11.770;2022-07-12T05:16:33;19.20;71.70
14850;DHT22;7517;48.400;11.770;2022-07-12T05:19:00;19.30;71.70
14850;DHT22;7517;48.400;11.770;2022-07-12T05:21:27;19.30;71.70
14850;DHT22;7517;48.400;11.770;2022-07-12T05:23:54;19.30;71.70
14850;DHT22;7517;48.400;11.770;2022-07-12T05:26:23;19.40;71.70
14850;DHT22;7517;48.400;11.770;2022-07-12T05:28:50;19.40;71.70
14850;DHT22;7517;48.400;11.770;2022-07-12T05:31:18;19.40;71.60
14850;DHT22;7517;48.400;11.770;2022-07-12T05:33:50;19.50;71.70
14850;DHT22;7517;48.400;11.770;2022-07-12T05:36:17;19.50;71.70
14850;DHT22;7517;48.400;11.770;2022-07-12T05:38:45;19.50;71.60
14850;DHT22;7517;48.400;11.770;2022-07-12T05:41:12;19.60;71.60
14850;DHT22;7517;48.400;11.770;2022-07-12T05:43:41;19.60;71.40
14850;DHT22;7517;48.400;11.770;2022-07-12T05:46:09;19.60;71.30
14850;DHT22;7517;48.400;11.770;2022-07-12T05:48:37;19.60;71.20
14850;DHT22;7517;48.400;11.770;2022-07-12T05:51:07;19.70;71.20
14850;DHT22;7517;48.400;11.770;2022-07-12T05:53:52;19.70;71.10
14850;DHT22;7517;48.400;11.770;2022-07-12T05:56:21;19.70;70.90
14850;DHT22;7517;48.400;11.770;2022-07-12T05:58:50;19.80;71.00
14850;DHT22;7517;48.400;11.770;2022-07-12T06:01:18;19.80;70.90
14850;DHT22;7517;48.400;11.770;2022-07-12T06:03:45;19.80;70.70
14850;DHT22;7517;48.400;11.770;2022-07-12T06:06:13;19.80;70.80
14850;DHT22;7517;48.400;11.770;2022-07-12T06:08:40;19.90;70.70
14850;DHT22;7517;48.400;11.770;2022-07-12T06:11:07;19.90;70.50
14850;DHT22;7517;48.400;11.770;2022-07-12T06:13:35;20.00;70.40
14850;DHT22;7517;48.400;11.770;2022-07-12T06:16:07;20.00;70.20
14850;DHT22;7517;48.400;11.770;2022-07-12T06:18:36;20.00;70.20
14850;DHT22;7517;48.400;11.770;2022-07-12T06:21:03;20.10;70.20
14850;DHT22;7517;48.400;11.770;2022-07-12T06:23:30;20.10;70.00
14850;DHT22;7517;48.400;11.770;2022-07-12T06:25:58;20.20;69.80
14850;DHT22;7517;48.400;11.770;2022-07-12T06:28:25;20.20;69.60
14850;DHT22;7517;48.400;11.770;2022-07-12T06:30:52;20.30;69.50
14850;DHT22;7517;48.400;11.770;2022-07-12T06:33:21;20.40;69.20
14850;DHT22;7517;48.400;11.770;2022-07-12T06:35:48;20.50;68.80
14850;DHT22;7517;48.400;11.770;2022-07-12T06:38:15;20.60;68.50
14850;DHT22;7517;48.400;11.770;2022-07-12T06:40:44;20.70;68.20
14850;DHT22;7517;48.400;11.770;2022-07-12T06:43:13;20.80;67.90
14850;DHT22;7517;48.400;11.770;2022-07-12T06:45:40;20.80;67.70
14850;DHT22;7517;48.400;11.770;2022-07-12T06:48:08;20.90;67.30
14850;DHT22;7517;48.400;11.770;2022-07-12T06:50:36;20.90;67.10
14850;DHT22;7517;48.400;11.770;2022-07-12T06:53:04;21.00;67.10
14850;DHT22;7517;48.400;11.770;2022-07-12T06:55:31;21.10;67.30
14850;DHT22;7517;48.400;11.770;2022-07-12T06:57:58;21.20;67.00
14850;DHT22;7517;48.400;11.770;2022-07-12T07:00:25;21.20;66.50
14850;DHT22;7517;48.400;11.770;2022-07-12T07:02:52;21.30;66.40
14850;DHT22;7517;48.400;11.770;2022-07-12T07:05:19;21.40;66.00
14850;DHT22;7517;48.400;11.770;2022-07-12T07:07:48;21.40;65.60
14850;DHT22;7517;48.400;11.770;2022-07-12T07:10:15;21.50;65.50
14850;DHT22;7517;48.400;11.770;2022-07-12T07:12:42;21.60;65.50
14850;DHT22;7517;48.400;11.770;2022-07-12T07:15:10;21.70;65.40
14850;DHT22;7517;48.400;11.770;2022-07-12T07:17:39;21.80;65.00
14850;DHT22;7517;48.400;11.770;2022-07-12T07:20:08;21.90;64.70
14850;DHT22;7517;48.400;11.770;2022-07-12T07:22:36;22.00;64.90
14850;DHT22;7517;48.400;11.770;2022-07-12T07:25:06;22.20;64.80
14850;DHT22;7517;48.400;11.770;2022-07-12T07:27:34;22.30;64.30
14850;DHT22;7517;48.400;11.770;2022-07-12T07:30:01;22.50;64.00
14850;DHT22;7517;48.400;11.770;2022-07-12T07:32:46;22.60;63.70
14850;DHT22;7517;48.400;11.770;2022-07-12T07:35:13;22.80;63.60
14850;DHT22;7517;48.400;11.770;2022-07-12T07:37:40;23.00;63.20
14850;DHT22;7517;48.400;11.770;2022-07-12T07:40:10;23.10;62.70
14850;DHT22;7517;48.400;11.770;2022-07-12T07:42:37;23.30;62.00
14850;DHT22;7517;48.400;11.770;2022-07-12T07:45:05;23.50;61.70
14850;DHT22;7517;48.400;11.770;2022-07-12T07:47:43;23.60;61.90
14850;DHT22;7517;48.400;11.770;2022-07-12T07:50:11;23.80;60.50
14850;DHT22;7517;48.400;11.770;2022-07-12T07:52:38;24.00;60.60
14850;DHT22;7517;48.400;11.770;2022-07-12T07:55:06;24.10;60.00
14850;DHT22;7517;48.400;11.770;2022-07-12T07:57:37;24.30;59.70
14850;DHT22;7517;48.400;11.770;2022-07-12T08:00:05;24.40;59.50
14850;DHT22;7517;48.400;11.770;2022-07-12T08:02:33;24.60;59.20
14850;DHT22;7517;48.400;11.770;2022-07-12T08:05:00;24.70;58.90
14850;DHT22;7517;48.400;11.770;2022-07-12T08:07:28;24.80;58.40
14850;DHT22;7517;48.400;11.770;2022-07-12T08:09:55;25.00;58.00
14850;DHT22;7517;48.400;11.770;2022-07-12T08:12:25;25.10;56.70
14850;DHT22;7517;48.400;11.770;2022-07-12T08:14:56;25.20;56.50
14850;DHT22;7517;48.400;11.770;2022-07-12T08:17:24;25.40;56.50
14850;DHT22;7517;48.400;11.770;2022-07-12T08:19:53;25.50;55.90
14850;DHT22;7517;48.400;11.770;2022-07-12T08:22:26;25.60;55.90
14850;DHT22;7517;48.400;11.770;2022-07-12T08:24:53;25.70;55.10
14850;DHT22;7517;48.400;11.770;2022-07-12T08:27:25;25.90;55.40
14850;DHT22;7517;48.400;11.770;2022-07-12T08:29:56;26.00;54.70
14850;DHT22;7517;48.400;11.770;2022-07-12T08:32:25;26.10;53.90
14850;DHT22;7517;48.400;11.770;2022-07-12T08:34:53;26.20;54.00
14850;DHT22;7517;48.400;11.770;2022-07-12T08:37:21;26.30;53.90
14850;DHT22;7517;48.400;11.770;2022-07-12T08:39:49;26.50;53.30
14850;DHT22;7517;48.400;11.770;2022-07-12T08:42:17;26.60;53.10
14850;DHT22;7517;48.400;11.770;2022-07-12T08:44:53;26.70;53.20
14850;DHT22;7517;48.400;11.770;2022-07-12T08:47:23;26.80;51.80
14850;DHT22;7517;48.400;11.770;2022-07-12T08:50:12;26.90;52.10
14850;DHT22;7517;48.400;11.770;2022-07-12T08:52:41;27.00;50.50
14850;DHT22;7517;48.400;11.770;2022-07-12T08:55:20;27.00;51.20
14850;DHT22;7517;48.400;11.770;2022-07-12T08:57:50;27.10;51.10
14850;DHT22;7517;48.400;11.770;2022-07-12T09:00:22;27.20;51.20
14850;DHT22;7517;48.400;11.770;2022-07-12T09:02:51;27.30;50.70
14850;DHT22;7517;48.400;11.770;2022-07-12T09:05:22;27.30;49.80
14850;DHT22;7517;48.400;11.770;2022-07-12T09:07:51;27.40;49.60
14850;DHT22;7517;48.400;11.770;2022-07-12T09:10:27;27.50;49.80
14850;DHT22;7517;48.400;11.770;2022-07-12T09:12:55;27.60;49.70
14850;DHT22;7517;48.400;11.770;2022-07-12T09:15:36;27.70;49.30
14850;DHT22;7517;48.400;11.770;2022-07-12T09:18:22;27.90;48.80
14850;DHT22;7517;48.400;11.770;2022-07-12T09:20:54;28.00;48.90
14850;DHT22;7517;48.400;11.770;2022-07-12T09:23:21;28.10;49.30
14850;DHT22;7517;48.400;11.770;2022-07-12T09:25:48;28.20;49.30
14850;DHT22;7517;48.400;11.770;2022-07-12T09:28:15;28.30;48.90
14850;DHT22;7517;48.400;11.770;2022-07-12T09:30:52;28.40;49.00
14850;DHT22;7517;48.400;11.770;2022-07-12T09:33:20;28.50;47.70
14850;DHT22;7517;48.400;11.770;2022-07-12T09:36:06;28.60;48.20
14850;DHT22;7517;48.400;11.770;2022-07-12T09:38:35;28.70;48.00
14850;DHT22;7517;48.400;11.770;2022-07-12T09:41:03;28.80;47.70
14850;DHT22;7517;48.400;11.770;2022-07-12T09:43:31;28.80;46.90
14850;DHT22;7517;48.400;11.770;2022-07-12T09:46:00;28.80;47.30
14850;DHT22;7517;48.400;11.770;2022-07-12T09:48:28;28.90;47.30
14850;DHT22;7517;48.400;11.770;2022-07-12T09:51:02;28.90;46.70
14850;DHT22;7517;48.400;11.770;2022-07-12T09:53:38;28.90;45.80
14850;DHT22;7517;48.400;11.770;2022-07-12T09:56:11;28.90;46.60
14850;DHT22;7517;48.400;11.770;2022-07-12T09:58:40;29.10;46.70
14850;DHT22;7517;48.400;11.770;2022-07-12T10:01:19;29.20;46.10
14850;DHT22;7517;48.400;11.770;2022-07-12T10:03:48;29.20;45.30
14850;DHT22;7517;48.400;11.770;2022-07-12T10:06:21;29.20;45.40
14850;DHT22;7517;48.400;11.770;2022-07-12T10:08:54;29.20;44.70
14850;DHT22;7517;48.400;11.770;2022-07-12T10:11:25;29.20;45.00
14850;DHT22;7517;48.400;11.770;2022-07-12T10:13:53;29.20;44.70
14850;DHT22;7517;48.400;11.770;2022-07-12T10:16:27;29.30;45.40
14850;DHT22;7517;48.400;11.770;2022-07-12T10:19:26;29.30;45.10
14850;DHT22;7517;48.400;11.770;2022-07-12T10:21:57;29.40;44.40
14850;DHT22;7517;48.400;11.770;2022-07-12T10:24:45;29.40;44.70
14850;DHT22;7517;48.400;11.770;2022-07-12T10:27:32;29.50;44.00
14850;DHT22;7517;48.400;11.770;2022-07-12T10:30:14;29.50;43.80
14850;DHT22;7517;48.400;11.770;2022-07-12T10:32:49;29.50;43.60
14850;DHT22;7517;48.400;11.770;2022-07-12T10:35:21;29.60;44.20
14850;DHT22;7517;48.400;11.770;2022-07-12T10:38:21;29.80;44.80
14850;DHT22;7517;48.400;11.770;2022-07-12T10:40:49;30.00;44.50
14850;DHT22;7517;48.400;11.770;2022-07-12T10:43:19;30.20;43.70
14850;DHT22;7517;48.400;11.770;2022-07-12T10:46:18;30.30;43.10
14850;DHT22;7517;48.400;11.770;2022-07-12T10:48:51;30.30;42.40
14850;DHT22;7517;48.400;11.770;2022-07-12T10:51:33;30.20;42.50
14850;DHT22;7517;48.400;11.770;2022-07-12T10:54:19;30.20;43.00
14850;DHT22;7517;48.400;11.770;2022-07-12T10:56:55;30.30;42.90
14850;DHT22;7517;48.400;11.770;2022-07-12T10:59:24;30.30;43.20
14850;DHT22;7517;48.400;11.770;2022-07-12T11:01:56;30.40;43.00
14850;DHT22;7517;48.400;11.770;2022-07-12T11:04:26;30.50;42.50
14850;DHT22;7517;48.400;11.770;2022-07-12T11:06:55;30.50;42.10
14850;DHT22;7517;48.400;11.770;2022-07-12T11:09:24;30.40;42.10
14850;DHT22;7517;48.400;11.770;2022-07-12T11:11:54;30.30;41.60
14850;DHT22;7517;48.400;11.770;2022-07-12T11:14:22;30.30;41.50
14850;DHT22;7517;48.400;11.770;2022-07-12T11:16:53;30.20;41.40
14850;DHT22;7517;48.400;11.770;2022-07-12T11:19:23;30.00;41.10
14850;DHT22;7517;48.400;11.770;2022-07-12T11:21:52;29.90;41.30
14850;DHT22;7517;48.400;11.770;2022-07-12T11:24:24;29.80;41.50
14850;DHT22;7517;48.400;11.770;2022-07-12T11:26:52;29.60;41.70
14850;DHT22;7517;48.400;11.770;2022-07-12T11:29:21;29.50;41.90
14850;DHT22;7517;48.400;11.770;2022-07-12T11:31:49;29.30;41.80
14850;DHT22;7517;48.400;11.770;2022-07-12T11:34:28;29.10;41.60
14850;DHT22;7517;48.400;11.770;2022-07-12T11:36:56;29.00;41.70
14850;DHT22;7517;48.400;11.770;2022-07-12T11:39:32;28.80;41.40
14850;DHT22;7517;48.400;11.770;2022-07-12T11:42:03;28.70;42.00
14850;DHT22;7517;48.400;11.770;2022-07-12T11:44:42;28.60;42.30
14850;DHT22;7517;48.400;11.770;2022-07-12T11:47:10;28.50;42.00
14850;DHT22;7517;48.400;11.770;2022-07-12T11:49:47;28.40;42.50
14850;DHT22;7517;48.400;11.770;2022-07-12T11:52:19;28.30;42.50
14850;DHT22;7517;48.400;11.770;2022-07-12T11:54:48;28.30;43.00
14850;DHT22;7517;48.400;11.770;2022-07-12T11:57:19;28.20;43.20
14850;DHT22;7517;48.400;11.770;2022-07-12T11:59:48;28.20;43.20
14850;DHT22;7517;48.400;11.770;2022-07-12T12:02:16;28.20;43.50
14850;DHT22;7517;48.400;11.770;2022-07-12T12:04:48;28.20;43.00
14850;DHT22;7517;48.400;11.770;2022-07-12T12:07:17;28.20;43.40
14850;DHT22;7517;48.400;11.770;2022-07-12T12:10:01;28.10;42.90
14850;DHT22;7517;48.400;11.770;2022-07-12T12:12:36;28.10;42.90
14850;DHT22;7517;48.400;11.770;2022-07-12T12:15:05;28.10;42.50
14850;DHT22;7517;48.400;11.770;2022-07-12T12:17:36;28.10;43.00
14850;DHT22;7517;48.400;11.770;2022-07-12T12:20:17;28.10;42.90
14850;DHT22;7517;48.400;11.770;2022-07-12T12:22:46;28.10;43.30
14850;DHT22;7517;48.400;11.770;2022-07-12T12:25:14;28.10;43.40
14850;DHT22;7517;48.400;11.770;2022-07-12T12:27:47;28.20;43.30
14850;DHT22;7517;48.400;11.770;2022-07-12T12:30:17;28.20;42.60
14850;DHT22;7517;48.400;11.770;2022-07-12T12:32:50;28.20;42.70
14850;DHT22;7517;48.400;11.770;2022-07-12T12:35:21;28.20;42.30
14850;DHT22;7517;48.400;11.770;2022-07-12T12:37:54;28.10;42.30
14850;DHT22;7517;48.400;11.770;2022-07-12T12:40:24;28.10;42.10
14850;DHT22;7517;48.400;11.770;2022-07-12T12:42:53;28.10;42.50
14850;DHT22;7517;48.400;11.770;2022-07-12T12:45:33;28.10;42.80
14850;DHT22;7517;48.400;11.770;2022-07-12T12:48:02;28.10;42.70
14850;DHT22;7517;48.400;11.770;2022-07-12T12:50:40;28.10;42.60
14850;DHT22;7517;48.400;11.770;2022-07-12T12:53:15;28.10;42.70
14850;DHT22;7517;48.400;11.770;2022-07-12T12:55:45;28.10;42.90
14850;DHT22;7517;48.400;11.770;2022-07-12T12:58:17;28.20;43.00
14850;DHT22;7517;48.400;11.770;2022-07-12T13:00:53;28.20;42.90
14850;DHT22;7517;48.400;11.770;2022-07-12T13:03:23;28.30;42.70
14850;DHT22;7517;48.400;11.770;2022-07-12T13:05:52;28.40;42.50
14850;DHT22;7517;48.400;11.770;2022-07-12T13:08:20;28.40;42.50
14850;DHT22;7517;48.400;11.770;2022-07-12T13:10:49;28.40;42.40
14850;DHT22;7517;48.400;11.770;2022-07-12T13:13:40;28.40;42.60
14850;DHT22;7517;48.400;11.770;2022-07-12T13:16:09;28.50;41.70
14850;DHT22;7517;48.400;11.770;2022-07-12T13:18:36;28.40;41.40
14850;DHT22;7517;48.400;11.770;2022-07-12T13:21:05;28.50;41.50
14850;DHT22;7517;48.400;11.770;2022-07-12T13:23:32;28.40;41.50
14850;DHT22;7517;48.400;11.770;2022-07-12T13:26:00;28.50;41.30
14850;DHT22;7517;48.400;11.770;2022-07-12T13:28:27;28.50;41.30
14850;DHT22;7517;48.400;11.770;2022-07-12T13:30:59;28.50;41.40
14850;DHT22;7517;48.400;11.770;2022-07-12T13:33:26;28.50;41.40
14850;DHT22;7517;48.400;11.770;2022-07-12T13:35:53;28.60;41.30
14850;DHT22;7517;48.400;11.770;2022-07-12T13:38:22;28.60;41.10
14850;DHT22;7517;48.400;11.770;2022-07-12T13:40:49;28.60;41.20
14850;DHT22;7517;48.400;11.770;2022-07-12T13:43:18;28.60;41.40
14850;DHT22;7517;48.400;11.770;2022-07-12T13:45:49;28.60;41.20
14850;DHT22;7517;48.400;11.770;2022-07-12T13:48:18;28.60;41.20
14850;DHT22;7517;48.400;11.770;2022-07-12T13:50:45;28.60;41.20
14850;DHT22;7517;48.400;11.770;2022-07-12T13:53:12;28.60;41.40
14850;DHT22;7517;48.400;11.770;2022-07-12T13:55:43;28.60;41.50
14850;DHT22;7517;48.400;11.770;2022-07-12T13:58:12;28.60;42.10
14850;DHT22;7517;48.400;11.770;2022-07-12T14:00:40;28.60;41.80
14850;DHT22;7517;48.400;11.770;2022-07-12T14:03:08;28.70;41.60
14850;DHT22;7517;48.400;11.770;2022-07-12T14:05:35;28.70;41.60
14850;DHT22;7517;48.400;11.770;2022-07-12T14:08:03;28.70;41.40
14850;DHT22;7517;48.400;11.770;2022-07-12T14:10:30;28.80;41.30
14850;DHT22;7517;48.400;11.770;2022-07-12T14:13:00;28.80;41.30
14850;DHT22;7517;48.400;11.770;2022-07-12T14:15:27;28.80;41.40
14850;DHT22;7517;48.400;11.770;2022-07-12T14:18:04;28.80;41.00
14850;DHT22;7517;48.400;11.770;2022-07-12T14:20:34;28.80;40.90
14850;DHT22;7517;48.400;11.770;2022-07-12T14:23:02;28.70;41.00
14850;DHT22;7517;48.400;11.770;2022-07-12T14:25:31;28.70;41.10
14850;DHT22;7517;48.400;11.770;2022-07-12T14:28:00;28.60;40.80
14850;DHT22;7517;48.400;11.770;2022-07-12T14:30:28;28.60;40.40
14850;DHT22;7517;48.400;11.770;2022-07-12T14:32:55;28.60;40.40
14850;DHT22;7517;48.400;11.770;2022-07-12T14:35:22;28.50;40.20
14850;DHT22;7517;48.400;11.770;2022-07-12T14:37:49;28.50;40.30
14850;DHT22;7517;48.400;11.770;2022-07-12T14:40:16;28.50;40.50
14850;DHT22;7517;48.400;11.770;2022-07-12T14:42:43;28.40;40.30
14850;DHT22;7517;48.400;11.770;2022-07-12T14:45:12;28.40;40.40
14850;DHT22;7517;48.400;11.770;2022-07-12T14:47:39;28.40;40.50
14850;DHT22;7517;48.400;11.770;2022-07-12T14:50:07;28.30;41.20
14850;DHT22;7517;48.400;11.770;2022-07-12T14:52:34;28.30;40.70
14850;DHT22;7517;48.400;11.770;2022-07-12T14:55:02;28.30;40.90
14850;DHT22;7517;48.400;11.770;2022-07-12T14:57:30;28.30;40.80
14850;DHT22;7517;48.400;11.770;2022-07-12T14:59:57;28.30;40.60
14850;DHT22;7517;48.400;11.770;2022-07-12T15:02:25;28.30;40.50
14850;DHT22;7517;48.400;11.770;2022-07-12T15:04:53;28.30;40.40
14850;DHT22;7517;48.400;11.770;2022-07-12T15:07:21;28.30;40.70
14850;DHT22;7517;48.400;11.770;2022-07-12T15:09:48;28.30;40.70
14850;DHT22;7517;48.400;11.770;2022-07-12T15:12:15;28.30;40.60
14850;DHT22;7517;48.400;11.770;2022-07-12T15:14:42;28.30;40.40
14850;DHT22;7517;48.400;11.770;2022-07-12T15:17:09;28.30;40.30
14850;DHT22;7517;48.400;11.770;2022-07-12T15:19:38;28.40;40.40
14850;DHT22;7517;48.400;11.770;2022-07-12T15:22:05;28.40;40.30
14850;DHT22;7517;48.400;11.770;2022-07-12T15:24:32;28.40;40.40
14850;DHT22;7517;48.400;11.770;2022-07-12T15:27:00;28.40;40.20
14850;DHT22;7517;48.400;11.770;2022-07-12T15:29:28;28.40;40.10
14850;DHT22;7517;48.400;11.770;2022-07-12T15:31:57;28.40;40.20
14850;DHT22;7517;48.400;11.770;2022-07-12T15:34:24;28.40;40.60
14850;DHT22;7517;48.400;11.770;2022-07-12T15:36:52;28.40;40.20
14850;DHT22;7517;48.400;11.770;2022-07-12T15:39:19;28.40;40.30
14850;DHT22;7517;48.400;11.770;2022-07-12T15:41:47;28.40;40.50
14850;DHT22;7517;48.400;11.770;2022-07-12T15:44:17;28.50;40.50